createdAt,value
2023-01-28T00:01:37.355Z,2.84
2023-01-28T00:04:05.680Z,2.84
2023-01-28T00:06:33.952Z,2.86
2023-01-28T00:09:02.123Z,2.83
2023-01-28T00:11:30.353Z,2.88
2023-01-28T00:13:58.519Z,2.90
2023-01-28T00:16:30.494Z,2.69
2023-01-28T00:18:58.744Z,2.78
2023-01-28T00:21:26.904Z,2.72
2023-01-28T00:23:57.236Z,2.76
2023-01-28T00:26:26.483Z,2.71
2023-01-28T00:28:54.704Z,2.75
2023-01-28T00:31:25.011Z,2.72
2023-01-28T00:33:56.326Z,2.73
2023-01-28T00:36:26.093Z,2.70
2023-01-28T00:38:56.207Z,2.69
2023-01-28T00:41:26.314Z,2.70
2023-01-28T00:43:55.740Z,2.68
2023-01-28T00:46:25.460Z,2.62
2023-01-28T00:48:55.131Z,2.66
2023-01-28T00:51:23.587Z,2.71
2023-01-28T00:53:53.128Z,2.70
2023-01-28T00:56:21.524Z,2.68
2023-01-28T00:58:49.874Z,2.69
2023-01-28T01:01:21.744Z,2.72
2023-01-28T01:03:57.755Z,2.64
2023-01-28T01:06:27.608Z,2.66
2023-01-28T01:08:56.231Z,2.66
2023-01-28T01:11:24.936Z,2.56
2023-01-28T01:13:55.069Z,2.56
2023-01-28T01:16:24.953Z,2.56
2023-01-28T01:18:53.765Z,2.58
2023-01-28T01:21:23.839Z,2.56
2023-01-28T01:23:54.262Z,2.57
2023-01-28T01:26:22.681Z,2.52
2023-01-28T01:28:52.233Z,2.47
2023-01-28T01:31:21.746Z,2.40
2023-01-28T01:33:51.976Z,2.37
2023-01-28T01:36:22.185Z,2.30
2023-01-28T01:38:56.467Z,2.29
2023-01-28T01:41:29.134Z,2.26
2023-01-28T01:43:59.184Z,2.18
2023-01-28T01:46:35.109Z,2.21
2023-01-28T01:49:14.640Z,2.10
2023-01-28T01:51:44.404Z,2.03
2023-01-28T01:54:15.805Z,2.16
2023-01-28T01:56:46.119Z,2.04
2023-01-28T01:59:19.690Z,2.03
2023-01-28T02:01:48.639Z,1.99
2023-01-28T02:04:21.889Z,1.90
2023-01-28T02:06:50.406Z,1.80
2023-01-28T02:09:30.742Z,1.62
2023-01-28T02:12:02.498Z,1.62
2023-01-28T02:14:33.871Z,1.63
2023-01-28T02:17:03.510Z,1.56
2023-01-28T02:19:38.523Z,1.49
2023-01-28T02:22:20.019Z,1.54
2023-01-28T02:25:29.206Z,1.38
2023-01-28T02:28:25.974Z,1.23
2023-01-28T02:30:59.803Z,1.21
2023-01-28T02:33:34.740Z,1.13
2023-01-28T02:36:11.286Z,1.08
2023-01-28T02:38:44.912Z,1.07
2023-01-28T02:41:20.839Z,0.98
2023-01-28T02:43:50.700Z,1.02
2023-01-28T02:46:54.689Z,1.04
2023-01-28T02:49:28.224Z,1.02
2023-01-28T02:52:41.137Z,0.99
2023-01-28T02:55:14.959Z,0.93
2023-01-28T02:57:53.187Z,0.91
2023-01-28T03:00:27.439Z,0.87
2023-01-28T03:03:08.993Z,0.82
2023-01-28T03:05:41.101Z,0.69
2023-01-28T03:08:24.525Z,0.57
2023-01-28T03:11:10.920Z,0.62
2023-01-28T03:13:58.827Z,0.57
2023-01-28T03:16:48.801Z,0.50
2023-01-28T03:19:36.677Z,0.44
2023-01-28T03:22:23.040Z,0.41
2023-01-28T03:25:11.539Z,0.39
2023-01-28T03:28:03.902Z,0.35
2023-01-28T03:30:57.533Z,0.13
2023-01-28T03:33:45.126Z,0.18
2023-01-28T03:36:30.977Z,0.14
2023-01-28T03:38:59.131Z,0.13
2023-01-28T03:41:28.002Z,0.15
2023-01-28T03:43:56.280Z,0.12
2023-01-28T03:46:24.488Z,0.08
2023-01-28T03:48:54.038Z,0.08
2023-01-28T03:51:22.385Z,0.05
2023-01-28T03:53:50.529Z,-0.10
2023-01-28T03:56:19.978Z,-0.04
2023-01-28T03:58:52.993Z,-0.01
2023-01-28T04:01:21.285Z,-0.03
2023-01-28T04:03:49.445Z,-0.13
2023-01-28T04:06:19.291Z,-0.08
2023-01-28T04:08:52.863Z,-0.12
2023-01-28T04:11:21.968Z,-0.08
2023-01-28T04:13:50.333Z,-0.14
2023-01-28T04:16:20.485Z,-0.18
2023-01-28T04:18:48.658Z,-0.25
2023-01-28T04:21:18.252Z,-0.25
2023-01-28T04:23:46.394Z,-0.25
2023-01-28T04:26:14.590Z,-0.21
2023-01-28T04:28:42.707Z,-0.22
2023-01-28T04:31:11.060Z,-0.28
2023-01-28T04:33:39.448Z,-0.26
2023-01-28T04:36:07.797Z,-0.25
2023-01-28T04:38:37.397Z,-0.28
2023-01-28T04:41:05.604Z,-0.20
2023-01-28T04:43:33.716Z,-0.26
2023-01-28T04:46:01.866Z,-0.31
2023-01-28T04:48:31.500Z,-0.31
2023-01-28T04:51:00.063Z,-0.28
2023-01-28T04:53:28.212Z,-0.36
2023-01-28T04:55:57.782Z,-0.39
2023-01-28T04:58:25.999Z,-0.42
2023-01-28T05:00:57.151Z,-0.34
2023-01-28T05:03:26.033Z,-0.51
2023-01-28T05:05:54.631Z,-0.38
2023-01-28T05:08:22.760Z,-0.44
2023-01-28T05:10:51.137Z,-0.43
2023-01-28T05:13:20.613Z,-0.43
2023-01-28T05:15:53.592Z,-0.51
2023-01-28T05:18:21.781Z,-0.52
2023-01-28T05:20:49.973Z,-0.48
2023-01-28T05:23:18.133Z,-0.48
2023-01-28T05:25:46.714Z,-0.51
2023-01-28T05:28:14.806Z,-0.49
2023-01-28T05:30:44.468Z,-0.55
2023-01-28T05:33:12.597Z,-0.50
2023-01-28T05:35:40.677Z,-0.56
2023-01-28T05:38:08.737Z,-0.49
2023-01-28T05:40:36.879Z,-0.54
2023-01-28T05:43:05.130Z,-0.50
2023-01-28T05:45:33.658Z,-0.57
2023-01-28T05:48:03.198Z,-0.56
2023-01-28T05:50:31.310Z,-0.50
2023-01-28T05:52:59.387Z,-0.51
2023-01-28T05:55:27.932Z,-0.55
2023-01-28T05:57:56.016Z,-0.47
2023-01-28T06:00:24.741Z,-0.38
2023-01-28T06:02:53.020Z,-0.37
2023-01-28T06:05:22.876Z,-0.35
2023-01-28T06:07:51.314Z,-0.33
2023-01-28T06:10:19.709Z,-0.32
2023-01-28T06:12:47.841Z,-0.30
2023-01-28T06:15:16.064Z,-0.31
2023-01-28T06:17:44.136Z,-0.31
2023-01-28T06:20:13.319Z,-0.30
2023-01-28T06:22:43.177Z,-0.34
2023-01-28T06:25:13.772Z,-0.30
2023-01-28T06:27:42.225Z,-0.35
2023-01-28T06:30:11.710Z,-0.26
2023-01-28T06:32:39.849Z,-0.16
2023-01-28T06:35:08.942Z,-0.19
2023-01-28T06:37:39.738Z,-0.27
2023-01-28T06:40:11.081Z,-0.40
2023-01-28T06:42:39.164Z,-0.29
2023-01-28T06:45:08.298Z,-0.34
2023-01-28T06:47:36.437Z,-0.38
2023-01-28T06:50:04.594Z,-0.37
2023-01-28T06:52:32.729Z,-0.26
2023-01-28T06:55:01.747Z,-0.29
2023-01-28T06:57:31.271Z,-0.39
2023-01-28T06:59:59.436Z,-0.42
2023-01-28T07:02:27.834Z,-0.49
2023-01-28T07:04:56.038Z,-0.50
2023-01-28T07:07:24.294Z,-0.54
2023-01-28T07:09:52.502Z,-0.47
2023-01-28T07:12:20.777Z,-0.39
2023-01-28T07:14:50.605Z,-0.43
2023-01-28T07:17:18.799Z,-0.41
2023-01-28T07:19:46.888Z,-0.44
2023-01-28T07:22:14.957Z,-0.40
2023-01-28T07:24:43.088Z,-0.32
2023-01-28T07:27:11.224Z,-0.26
2023-01-28T07:29:39.411Z,-0.30
2023-01-28T07:32:09.214Z,-0.20
2023-01-28T07:34:39.984Z,-0.11
2023-01-28T07:37:08.058Z,-0.04
2023-01-28T07:39:36.398Z,-0.04
2023-01-28T07:42:04.616Z,0.04
2023-01-28T07:44:32.726Z,-0.01
2023-01-28T07:47:00.939Z,0.06
2023-01-28T07:49:30.417Z,0.05
2023-01-28T07:51:58.551Z,0.08
2023-01-28T07:54:26.785Z,0.07
2023-01-28T07:56:55.196Z,0.07
2023-01-28T07:59:24.009Z,0.07
2023-01-28T08:01:54.956Z,0.23
2023-01-28T08:04:23.703Z,0.30
2023-01-28T08:06:53.229Z,0.31
2023-01-28T08:09:21.697Z,0.34
2023-01-28T08:11:49.945Z,0.38
2023-01-28T08:14:18.130Z,0.34
2023-01-28T08:16:46.254Z,0.30
2023-01-28T08:19:14.352Z,0.39
2023-01-28T08:21:42.483Z,0.42
2023-01-28T08:24:12.026Z,0.38
2023-01-28T08:26:40.096Z,0.37
2023-01-28T08:29:08.306Z,0.45
2023-01-28T08:31:36.667Z,0.39
2023-01-28T08:34:04.806Z,0.53
2023-01-28T08:36:32.913Z,0.62
2023-01-28T08:39:01.061Z,0.61
2023-01-28T08:41:31.386Z,0.49
2023-01-28T08:44:00.466Z,0.79
2023-01-28T08:46:28.624Z,0.70
2023-01-28T08:48:56.841Z,0.77
2023-01-28T08:51:24.929Z,0.80
2023-01-28T08:53:53.040Z,0.92
2023-01-28T08:56:21.135Z,0.85
2023-01-28T08:58:51.200Z,1.19
2023-01-28T09:01:19.374Z,1.27
2023-01-28T09:03:47.570Z,1.30
2023-01-28T09:06:15.695Z,1.31
2023-01-28T09:08:43.818Z,1.48
2023-01-28T09:11:12.313Z,1.42
2023-01-28T09:13:40.691Z,1.35
2023-01-28T09:16:10.984Z,1.35
2023-01-28T09:18:39.173Z,1.40
2023-01-28T09:21:08.569Z,1.19
2023-01-28T09:23:37.286Z,1.17
2023-01-28T09:26:06.676Z,0.90
2023-01-28T09:28:34.878Z,1.12
2023-01-28T09:31:04.819Z,1.15
2023-01-28T09:33:36.812Z,1.01
2023-01-28T09:36:07.039Z,0.91
2023-01-28T09:38:36.382Z,1.01
2023-01-28T09:41:12.111Z,1.10
2023-01-28T09:43:54.583Z,0.59
2023-01-28T09:46:22.978Z,0.67
2023-01-28T09:48:54.479Z,0.81
2023-01-28T09:51:33.186Z,1.14
2023-01-28T09:54:05.957Z,0.75
2023-01-28T09:56:41.077Z,0.87
2023-01-28T09:59:19.888Z,0.80
2023-01-28T10:01:54.718Z,0.73
2023-01-28T10:04:40.039Z,0.95
2023-01-28T10:07:22.552Z,0.96
2023-01-28T10:09:57.584Z,1.15
2023-01-28T10:12:50.983Z,1.29
2023-01-28T10:15:40.063Z,1.47
2023-01-28T10:18:17.653Z,1.36
2023-01-28T10:20:51.124Z,1.34
2023-01-28T10:23:25.125Z,1.14
2023-01-28T10:25:53.472Z,1.15
2023-01-28T10:28:24.677Z,1.36
2023-01-28T10:30:53.476Z,1.12
2023-01-28T10:33:36.961Z,1.34
2023-01-28T10:36:09.804Z,1.33
2023-01-28T10:38:38.033Z,1.21
2023-01-28T10:41:08.924Z,0.97
2023-01-28T10:43:49.240Z,0.79
2023-01-28T10:46:21.125Z,0.85
2023-01-28T10:48:56.312Z,0.92
2023-01-28T10:51:41.931Z,1.16
2023-01-28T10:54:26.008Z,0.83
2023-01-28T10:56:57.082Z,1.24
2023-01-28T10:59:28.832Z,1.49
2023-01-28T11:01:59.780Z,1.36
2023-01-28T11:04:30.278Z,1.24
2023-01-28T11:07:02.180Z,0.97
2023-01-28T11:09:32.138Z,1.14
2023-01-28T11:12:11.657Z,1.34
2023-01-28T11:14:39.692Z,1.11
2023-01-28T11:17:17.467Z,1.05
2023-01-28T11:19:46.013Z,0.76
2023-01-28T11:22:26.772Z,0.43
2023-01-28T11:24:55.126Z,0.69
2023-01-28T11:27:31.549Z,0.46
2023-01-28T11:30:03.532Z,0.59
2023-01-28T11:32:32.535Z,0.61
2023-01-28T11:35:01.584Z,0.46
2023-01-28T11:37:31.686Z,0.72
2023-01-28T11:40:21.871Z,0.76
2023-01-28T11:42:52.424Z,0.63
2023-01-28T11:45:23.978Z,0.63
2023-01-28T11:48:21.534Z,0.70
2023-01-28T11:51:03.007Z,0.62
2023-01-28T11:53:53.373Z,0.62
2023-01-28T11:56:42.627Z,0.86
2023-01-28T11:59:25.966Z,0.52
2023-01-28T12:01:59.631Z,0.35
2023-01-28T12:04:51.177Z,0.36
2023-01-28T12:07:32.781Z,0.35
2023-01-28T12:10:05.189Z,0.57
2023-01-28T12:12:48.384Z,0.64
2023-01-28T12:15:41.403Z,0.68
2023-01-28T12:18:24.234Z,0.49
2023-01-28T12:21:06.510Z,0.36
2023-01-28T12:23:53.347Z,0.30
2023-01-28T12:26:35.847Z,0.41
2023-01-28T12:29:19.700Z,0.33
2023-01-28T12:32:09.935Z,0.24
2023-01-28T12:35:04.153Z,0.11
2023-01-28T12:37:44.150Z,0.08
2023-01-28T12:40:27.858Z,0.12
2023-01-28T12:43:01.830Z,0.19
2023-01-28T12:45:40.735Z,0.21
2023-01-28T12:48:14.277Z,0.43
2023-01-28T12:50:48.364Z,0.43
2023-01-28T12:53:26.415Z,0.35
2023-01-28T12:55:59.210Z,0.35
2023-01-28T12:58:40.277Z,0.10
2023-01-28T13:01:13.505Z,0.03
2023-01-28T13:03:47.155Z,0.26
2023-01-28T13:06:20.919Z,0.32
2023-01-28T13:08:50.633Z,0.17
2023-01-28T13:11:19.792Z,0.10
2023-01-28T13:13:49.591Z,0.14
2023-01-28T13:16:19.427Z,0.26
2023-01-28T13:18:49.411Z,0.35
2023-01-28T13:21:32.443Z,0.40
2023-01-28T13:24:08.872Z,0.33
2023-01-28T13:26:45.456Z,0.23
2023-01-28T13:29:32.660Z,0.27
2023-01-28T13:32:02.337Z,0.03
2023-01-28T13:34:37.472Z,-0.06
2023-01-28T13:37:16.622Z,-0.04
2023-01-28T13:39:50.738Z,-0.01
2023-01-28T13:42:24.912Z,0.03
2023-01-28T13:44:54.850Z,0.10
2023-01-28T13:47:28.558Z,-0.08
2023-01-28T13:49:59.578Z,-0.08
2023-01-28T13:52:33.502Z,0.02
2023-01-28T13:55:06.052Z,-0.08
2023-01-28T13:58:13.251Z,0.00
2023-01-28T14:01:11.139Z,-0.04
2023-01-28T14:04:26.705Z,-0.07
2023-01-28T14:07:24.826Z,-0.17
2023-01-28T14:10:28.548Z,-0.19
2023-01-28T14:13:19.032Z,-0.20
2023-01-28T14:15:58.078Z,-0.17
2023-01-28T14:18:29.168Z,-0.24
2023-01-28T14:21:01.270Z,-0.23
2023-01-28T14:23:31.380Z,-0.19
2023-01-28T14:26:24.941Z,-0.27
2023-01-28T14:29:03.430Z,-0.17
2023-01-28T14:31:36.948Z,-0.27
2023-01-28T14:34:12.228Z,-0.28
2023-01-28T14:36:42.620Z,-0.30
2023-01-28T14:39:18.486Z,-0.42
2023-01-28T14:41:51.173Z,-0.38
2023-01-28T14:44:29.901Z,-0.27
2023-01-28T14:47:17.563Z,-0.27
2023-01-28T14:50:01.058Z,-0.17
2023-01-28T14:52:48.001Z,-0.10
2023-01-28T14:55:33.215Z,-0.20
2023-01-28T14:58:05.255Z,-0.16
2023-01-28T15:00:35.448Z,-0.29
2023-01-28T15:03:26.633Z,-0.31
2023-01-28T15:06:08.596Z,-0.33
2023-01-28T15:08:40.285Z,-0.33
2023-01-28T15:11:12.393Z,-0.39
2023-01-28T15:13:44.777Z,-0.39
2023-01-28T15:16:19.420Z,-0.26
2023-01-28T15:18:50.945Z,-0.39
2023-01-28T15:21:22.375Z,-0.37
2023-01-28T15:23:53.686Z,-0.32
2023-01-28T15:26:24.756Z,-0.34
2023-01-28T15:28:54.011Z,-0.28
2023-01-28T15:31:23.650Z,-0.36
2023-01-28T15:34:00.891Z,-0.17
2023-01-28T15:36:29.851Z,-0.20
2023-01-28T15:38:58.872Z,-0.18
2023-01-28T15:41:32.314Z,-0.28
2023-01-28T15:44:02.021Z,-0.28
2023-01-28T15:46:30.121Z,-0.41
2023-01-28T15:49:02.720Z,-0.33
2023-01-28T15:51:33.951Z,-0.44
2023-01-28T15:54:05.858Z,-0.33
2023-01-28T15:56:34.696Z,-0.38
2023-01-28T15:59:21.298Z,-0.44
2023-01-28T16:01:49.554Z,-0.39
2023-01-28T16:04:27.274Z,-0.33
2023-01-28T16:06:57.621Z,-0.42
2023-01-28T16:09:31.420Z,-0.38
2023-01-28T16:12:04.225Z,-0.34
2023-01-28T16:14:35.852Z,-0.38
2023-01-28T16:17:04.081Z,-0.34
2023-01-28T16:19:38.432Z,-0.32
2023-01-28T16:22:07.873Z,-0.35
2023-01-28T16:24:37.373Z,-0.28
2023-01-28T16:27:08.104Z,-0.42
2023-01-28T16:29:37.495Z,-0.40
2023-01-28T16:32:06.065Z,-0.37
2023-01-28T16:34:35.692Z,-0.40
2023-01-28T16:37:04.166Z,-0.35
2023-01-28T16:39:32.497Z,-0.46
2023-01-28T16:42:00.789Z,-0.34
2023-01-28T16:44:28.890Z,-0.37
2023-01-28T16:46:56.982Z,-0.44
2023-01-28T16:49:25.224Z,-0.39
2023-01-28T16:51:54.929Z,-0.22
2023-01-28T16:54:23.995Z,-0.24
2023-01-28T16:56:52.329Z,-0.36
2023-01-28T16:59:20.379Z,-0.38
2023-01-28T17:01:48.693Z,-0.32
2023-01-28T17:04:16.984Z,-0.23
2023-01-28T17:06:46.145Z,-0.28
2023-01-28T17:09:16.108Z,-0.42
2023-01-28T17:11:44.287Z,-0.35
2023-01-28T17:14:12.988Z,-0.32
2023-01-28T17:16:41.268Z,-0.31
2023-01-28T17:19:09.385Z,-0.33
2023-01-28T17:21:37.659Z,-0.24
2023-01-28T17:24:06.900Z,-0.32
2023-01-28T17:26:37.103Z,-0.24
2023-01-28T17:29:06.111Z,-0.27
2023-01-28T17:31:34.508Z,-0.27
2023-01-28T17:34:02.707Z,-0.26
2023-01-28T17:36:30.794Z,-0.21
2023-01-28T17:38:59.191Z,-0.14
2023-01-28T17:41:27.280Z,-0.17
2023-01-28T17:43:58.169Z,-0.13
2023-01-28T17:46:33.804Z,-0.20
2023-01-28T17:49:03.315Z,-0.10
2023-01-28T17:51:31.462Z,-0.14
2023-01-28T17:53:59.727Z,-0.15
2023-01-28T17:56:29.788Z,-0.15
2023-01-28T17:59:02.327Z,-0.16
2023-01-28T18:01:31.464Z,-0.19
2023-01-28T18:04:00.190Z,-0.20
2023-01-28T18:06:31.704Z,-0.17
2023-01-28T18:08:59.789Z,-0.16
2023-01-28T18:11:28.664Z,-0.15
2023-01-28T18:13:58.116Z,-0.17
2023-01-28T18:16:26.294Z,-0.21
2023-01-28T18:18:54.730Z,-0.31
2023-01-28T18:21:46.566Z,-0.30
2023-01-28T18:24:19.702Z,-0.28
2023-01-28T18:26:47.904Z,-0.34
2023-01-28T18:29:20.776Z,-0.26
2023-01-28T18:31:49.762Z,-0.30
2023-01-28T18:34:18.712Z,-0.24
2023-01-28T18:36:46.910Z,-0.26
2023-01-28T18:39:15.751Z,-0.31
2023-01-28T18:41:44.263Z,-0.33
2023-01-28T18:44:13.730Z,-0.27
2023-01-28T18:46:43.406Z,-0.27
2023-01-28T18:49:11.972Z,-0.39
2023-01-28T18:51:40.127Z,-0.29
2023-01-28T18:54:13.649Z,-0.40
2023-01-28T18:56:46.714Z,-0.36
2023-01-28T18:59:15.978Z,-0.44
2023-01-28T19:01:47.904Z,-0.54
2023-01-28T19:04:16.783Z,-0.43
2023-01-28T19:06:45.165Z,-0.50
2023-01-28T19:09:15.370Z,-0.37
2023-01-28T19:11:44.272Z,-0.45
2023-01-28T19:14:15.248Z,-0.36
2023-01-28T19:16:43.922Z,-0.32
2023-01-28T19:19:13.730Z,-0.28
2023-01-28T19:21:42.147Z,-0.39
2023-01-28T19:24:14.162Z,-0.37
2023-01-28T19:26:43.968Z,-0.39
2023-01-28T19:29:15.515Z,-0.39
2023-01-28T19:31:44.555Z,-0.39
2023-01-28T19:34:14.309Z,-0.24
2023-01-28T19:36:42.673Z,-0.25
2023-01-28T19:39:12.850Z,-0.31
2023-01-28T19:41:41.086Z,-0.37
2023-01-28T19:44:09.411Z,-0.40
2023-01-28T19:46:37.843Z,-0.37
2023-01-28T19:49:06.607Z,-0.50
2023-01-28T19:51:36.394Z,-0.62
2023-01-28T19:54:04.911Z,-0.58
2023-01-28T19:56:36.205Z,-0.69
2023-01-28T19:59:04.834Z,-0.73
2023-01-28T20:01:33.007Z,-0.65
2023-01-28T20:04:02.132Z,-0.52
2023-01-28T20:06:31.733Z,-0.64
2023-01-28T20:09:03.520Z,-0.74
2023-01-28T20:11:31.862Z,-0.79
2023-01-28T20:14:00.042Z,-0.73
2023-01-28T20:16:29.980Z,-0.68
2023-01-28T20:18:59.946Z,-0.68
2023-01-28T20:21:29.737Z,-0.62
2023-01-28T20:24:00.032Z,-0.59
2023-01-28T20:26:32.357Z,-0.68
2023-01-28T20:29:02.507Z,-0.63
2023-01-28T20:31:31.011Z,-0.46
2023-01-28T20:33:59.259Z,-0.47
2023-01-28T20:36:27.416Z,-0.59
2023-01-28T20:38:55.666Z,-0.77
2023-01-28T20:41:25.933Z,-0.70
2023-01-28T20:43:56.018Z,-0.59
2023-01-28T20:46:25.461Z,-0.69
2023-01-28T20:48:55.568Z,-0.75
2023-01-28T20:51:25.625Z,-0.87
2023-01-28T20:53:54.871Z,-0.74
2023-01-28T20:56:24.373Z,-0.75
2023-01-28T20:58:57.971Z,-0.69
2023-01-28T21:01:27.935Z,-0.66
2023-01-28T21:03:56.708Z,-0.72
2023-01-28T21:06:25.639Z,-0.78
2023-01-28T21:08:54.212Z,-0.82
2023-01-28T21:11:23.452Z,-0.72
2023-01-28T21:13:52.089Z,-0.72
2023-01-28T21:16:22.097Z,-0.73
2023-01-28T21:18:50.581Z,-0.81
2023-01-28T21:21:20.633Z,-0.76
2023-01-28T21:23:48.759Z,-0.75
2023-01-28T21:26:17.372Z,-0.77
2023-01-28T21:28:46.075Z,-0.78
2023-01-28T21:31:17.854Z,-0.74
2023-01-28T21:33:50.785Z,-0.83
2023-01-28T21:36:19.310Z,-0.84
2023-01-28T21:38:52.261Z,-0.77
2023-01-28T21:41:20.599Z,-0.72
2023-01-28T21:43:52.177Z,-0.74
2023-01-28T21:46:20.536Z,-0.82
2023-01-28T21:48:50.196Z,-0.84
2023-01-28T21:51:35.522Z,-0.85
2023-01-28T21:54:04.017Z,-0.82
2023-01-28T21:56:32.292Z,-0.84
2023-01-28T21:59:18.139Z,-0.81
2023-01-28T22:01:46.483Z,-0.82
2023-01-28T22:04:16.352Z,-0.83
2023-01-28T22:06:45.387Z,-0.89
2023-01-28T22:09:14.486Z,-0.92
2023-01-28T22:11:44.261Z,-0.90
2023-01-28T22:14:12.805Z,-0.94
2023-01-28T22:16:41.377Z,-0.93
2023-01-28T22:19:09.612Z,-0.91
2023-01-28T22:21:42.018Z,-0.90
2023-01-28T22:24:11.898Z,-0.86
2023-01-28T22:26:40.513Z,-0.84
2023-01-28T22:29:09.485Z,-0.84
2023-01-28T22:31:39.265Z,-0.84
2023-01-28T22:34:08.306Z,-0.82
2023-01-28T22:36:37.338Z,-0.84
2023-01-28T22:39:09.327Z,-0.82
2023-01-28T22:41:37.529Z,-0.84
2023-01-28T22:44:05.992Z,-0.85
2023-01-28T22:46:35.236Z,-0.92
2023-01-28T22:49:03.960Z,-0.90
2023-01-28T22:51:33.866Z,-0.88
2023-01-28T22:54:02.477Z,-0.84
2023-01-28T22:56:32.353Z,-0.83
2023-01-28T22:59:02.708Z,-0.84
2023-01-28T23:01:31.300Z,-0.84
2023-01-28T23:03:59.699Z,-0.92
2023-01-28T23:06:30.082Z,-0.91
2023-01-28T23:08:58.427Z,-0.87
2023-01-28T23:11:27.872Z,-0.87
2023-01-28T23:14:17.337Z,-0.77
2023-01-28T23:17:03.919Z,-0.79
2023-01-28T23:19:50.014Z,-0.81
2023-01-28T23:22:40.100Z,-0.86
2023-01-28T23:25:08.974Z,-0.84
2023-01-28T23:27:37.402Z,-0.76
2023-01-28T23:30:10.504Z,-0.85
2023-01-28T23:32:40.608Z,-0.87
2023-01-28T23:35:09.067Z,-0.85
2023-01-28T23:37:37.179Z,-0.71
2023-01-28T23:40:06.205Z,-0.77
2023-01-28T23:42:34.263Z,-0.60
2023-01-28T23:45:02.373Z,-0.73
2023-01-28T23:47:32.088Z,-0.70
2023-01-28T23:50:00.613Z,-0.76
2023-01-28T23:52:28.758Z,-0.68
2023-01-28T23:54:56.931Z,-0.58
2023-01-28T23:57:25.009Z,-0.63
2023-01-28T23:59:53.379Z,-0.74
